Lyman, Wyoming
Current Conditions -  °F | °C
As of 5:55 PM on Tuesday 21 Oct 2014 (Local Time) from KFBR Reporting Station
Overcast Overcast  
Wind Chill: 11°   Ceiling: 4500
Heat Index: 11°   Visibility: NA
Dew Point: -1°   Wind: 20mph
Humidity: 45%   Direction: 300°WNW
Pressure: 30.06"   Gusts: 24mph
Location:  41.33°N, 110.29°W
Report Text: KFBR 212355Z AUTO 30017G21KT OVC045 11/M01 A3006 RMK AO2 LTG DSNT SE AND S T01051011 10193 20105 PWINO
Loading
Personal Weather Stations






























Interactive Weather Map
Tropical Storm Tracking
New forecast layout! Learn more

10-Day Weather Forecast

Advertisements
Track Severe Weather on mobile